Time;durP1;ratioP1;P1;durP2;ratioP2;P2;SDS_P1;SDS_P2;PMS_P1;PMS_P2;Temp;Humidity;BMP_temperature;BMP_pressure;BME280_temperature;BME280_humidity;BME280_pressure;Samples;Min_cycle;Max_cycle;Signal;HPM_P1;HPM_P2
2022/06/01 00:00:26;;;;;;;;;2.00;2.00;;;;;19.50;38.04;100981.97;2106453;27;47711;-61
2022/06/01 00:01:26;;;;;;;;;6.00;5.75;;;;;19.48;37.64;100981.19;2096704;28;47517;-59
2022/06/01 00:02:27;;;;;;;;;3.67;3.67;;;;;19.46;38.09;100975.00;2095435;28;48323;-62
2022/06/01 00:03:33;;;;;;;;;2.33;2.33;;;;;19.45;38.17;100967.91;2096871;28;47956;-62
2022/06/01 00:04:34;;;;;;;;;2.00;2.00;;;;;19.45;37.79;100978.66;2097972;27;48022;-61
2022/06/01 00:05:34;;;;;;;;;2.67;2.00;;;;;19.44;38.07;100982.31;2104304;28;48515;-63
2022/06/01 00:06:35;;;;;;;;;1.00;1.00;;;;;19.41;37.65;100977.94;2106043;27;47829;-61
2022/06/01 00:07:35;;;;;;;;;1.67;1.67;;;;;19.38;38.01;100975.41;2104166;27;48551;-62
2022/06/01 00:08:36;;;;;;;;;2.00;2.00;;;;;19.37;37.48;100970.13;2106085;27;47591;-60
2022/06/01 00:09:36;;;;;;;;;2.75;2.75;;;;;19.34;38.03;100978.38;2106369;27;47177;-61
2022/06/01 00:10:37;;;;;;;;;4.00;2.00;;;;;19.32;37.97;100982.97;2113078;27;47999;-62
2022/06/01 00:11:39;;;;;;;;;3.25;3.25;;;;;19.30;38.12;100976.78;2106304;27;47619;-62
2022/06/01 00:12:39;;;;;;;;;4.25;2.75;;;;;19.26;38.07;100975.22;2106047;27;47427;-59
2022/06/01 00:13:41;;;;;;;;;2.00;2.00;;;;;19.23;38.37;100975.38;2105670;27;48019;-61
2022/06/01 00:14:41;;;;;;;;;3.00;3.00;;;;;19.21;38.44;100975.47;2105295;27;47826;-62
2022/06/01 00:15:42;;;;;;;;;3.00;3.00;;;;;19.23;38.79;100978.06;2104701;27;48006;-62
2022/06/01 00:16:42;;;;;;;;;1.33;1.33;;;;;19.24;38.29;100979.81;2108762;27;47788;-60
2022/06/01 00:17:43;;;;;;;;;2.67;2.67;;;;;19.25;38.27;100979.72;2108069;27;48177;-62
2022/06/01 00:18:43;;;;;;;;;1.33;1.33;;;;;19.27;38.47;100983.19;2105247;27;48288;-59
2022/06/01 00:19:44;;;;;;;;;2.33;2.33;;;;;19.28;38.23;100984.94;2109282;27;47680;-60
2022/06/01 00:20:45;;;;;;;;;2.00;2.00;;;;;19.25;38.43;100985.09;2106826;27;47140;-62
2022/06/01 00:23:06;;;;;;;;;2.00;2.00;;;;;19.21;38.61;100988.03;2091274;28;48163;-61
2022/06/01 00:24:07;;;;;;;;;1.00;1.00;;;;;19.20;38.40;100983.63;2095752;27;48365;-61
2022/06/01 00:25:08;;;;;;;;;2.33;2.33;;;;;19.18;38.49;100991.75;2105884;27;47686;-61
2022/06/01 00:26:09;;;;;;;;;2.75;2.75;;;;;19.16;38.71;100980.19;2091167;28;48170;-60
2022/06/01 00:27:10;;;;;;;;;2.33;2.33;;;;;19.14;38.49;100982.09;2086356;28;47803;-60
2022/06/01 00:28:11;;;;;;;;;4.00;4.00;;;;;19.14;38.64;100983.94;2107294;27;47777;-61
2022/06/01 00:29:11;;;;;;;;;4.00;3.33;;;;;19.12;38.87;100986.72;2112488;27;48131;-62
2022/06/01 00:30:14;;;;;;;;;1.67;1.00;;;;;19.11;38.89;100988.53;2112901;27;47998;-61
2022/06/01 00:31:15;;;;;;;;;1.75;1.75;;;;;19.09;38.81;100987.75;2102828;28;47448;-62
2022/06/01 00:32:16;;;;;;;;;1.67;1.67;;;;;19.08;39.13;100990.50;2104467;28;48158;-63
2022/06/01 00:33:16;;;;;;;;;3.75;2.75;;;;;19.06;38.67;100989.72;2110666;27;47532;-60
2022/06/01 00:34:17;;;;;;;;;3.33;3.33;;;;;19.03;38.87;100979.97;2108587;27;47747;-63
2022/06/01 00:35:21;;;;;;;;;3.25;3.25;;;;;19.02;38.93;100991.69;2114039;27;47876;-61
2022/06/01 00:36:21;;;;;;;;;4.25;3.00;;;;;18.99;39.09;100997.25;2111888;27;47512;-61
2022/06/01 00:37:21;;;;;;;;;2.33;2.33;;;;;18.97;38.87;100990.22;2112332;27;47091;-60
2022/06/01 00:38:22;;;;;;;;;2.33;2.33;;;;;18.95;39.10;100992.97;2107543;27;47128;-61
2022/06/01 00:39:23;;;;;;;;;2.00;2.00;;;;;18.94;39.12;100987.69;2105464;28;48007;-59
2022/06/01 00:40:26;;;;;;;;;1.67;1.67;;;;;18.92;38.92;100992.25;2096845;28;47808;-59
2022/06/01 00:41:29;;;;;;;;;2.75;2.75;;;;;18.91;39.14;100993.19;2103223;27;47669;-60
2022/06/01 00:42:32;;;;;;;;;2.75;2.75;;;;;18.90;39.18;100992.31;2111970;27;47595;-60
2022/06/01 00:43:44;;;;;;;;;3.25;2.25;;;;;18.88;39.08;100993.38;2087279;28;48580;-61
2022/06/01 00:44:46;;;;;;;;;3.00;3.00;;;;;18.85;39.19;100990.84;2091569;27;48350;-58
2022/06/01 00:45:47;;;;;;;;;2.00;2.00;;;;;18.82;39.27;100991.88;2111867;27;47903;-60
2022/06/01 00:46:47;;;;;;;;;2.67;2.00;;;;;18.80;39.41;100983.00;2114195;27;48153;-58
2022/06/01 00:47:49;;;;;;;;;1.33;1.00;;;;;18.80;39.36;100986.59;2111479;27;47726;-62
2022/06/01 00:48:54;;;;;;;;;2.25;2.25;;;;;18.84;39.66;100987.28;2105904;27;47662;-61
2022/06/01 00:50:09;;;;;;;;;1.25;1.25;;;;;18.86;39.57;100984.50;2114470;27;45750;-59
2022/06/01 00:51:13;;;;;;;;;3.25;2.50;;;;;18.88;39.48;100979.91;2112454;27;47709;-58
2022/06/01 00:52:15;;;;;;;;;3.00;3.00;;;;;18.91;39.59;100985.13;2111836;27;48169;-61
2022/06/01 00:53:33;;;;;;;;;2.50;2.00;;;;;18.92;39.50;100982.34;2113789;27;48149;-62
2022/06/01 00:54:34;;;;;;;;;3.25;3.25;;;;;18.94;39.36;100985.88;2114123;27;47592;-59
2022/06/01 00:55:42;;;;;;;;;3.00;3.00;;;;;18.93;39.41;100984.13;2090060;28;47909;-62
2022/06/01 00:56:54;;;;;;;;;4.75;3.00;;;;;18.93;39.27;100989.50;2080959;28;48131;-60
2022/06/01 00:58:02;;;;;;;;;2.00;2.00;;;;;18.91;39.55;100991.38;2089196;28;47879;-61
2022/06/01 00:59:05;;;;;;;;;3.00;3.00;;;;;18.89;39.26;100985.22;2109759;27;47717;-60
2022/06/01 01:00:12;;;;;;;;;1.75;1.75;;;;;18.87;39.48;100989.81;2107239;27;47394;-63
2022/06/01 01:01:16;;;;;;;;;2.75;2.75;;;;;18.84;39.55;100983.72;2113840;27;48061;-59
2022/06/01 01:02:17;;;;;;;;;4.75;3.00;;;;;18.81;39.51;100985.63;2111618;27;47762;-61
2022/06/01 01:03:20;;;;;;;;;2.00;2.00;;;;;18.81;39.74;100984.75;2112208;27;47770;-59
2022/06/01 01:04:23;;;;;;;;;2.50;2.25;;;;;18.79;39.72;100982.13;2113635;27;48203;-61
2022/06/01 01:05:24;;;;;;;;;1.75;1.75;;;;;18.78;39.81;100987.59;2112060;27;47590;-60
2022/06/01 01:06:28;;;;;;;;;4.00;4.00;;;;;18.77;39.89;100984.03;2109284;27;47564;-59
2022/06/01 01:07:29;;;;;;;;;2.00;2.00;;;;;18.75;40.08;100985.06;2096673;28;47457;-62
2022/06/01 01:08:31;;;;;;;;;2.33;2.33;;;;;18.75;40.12;100985.94;2105707;27;47382;-61
2022/06/01 01:09:32;;;;;;;;;1.25;1.25;;;;;18.73;39.86;100984.28;2113243;27;47950;-62
2022/06/01 01:10:33;;;;;;;;;2.33;1.33;;;;;18.71;39.84;100989.72;2113391;27;48204;-61
2022/06/01 01:11:47;;;;;;;;;2.00;2.00;;;;;18.68;40.13;100986.34;2108750;27;47788;-61
2022/06/01 01:12:59;;;;;;;;;4.00;4.00;;;;;18.66;40.12;100988.22;2112863;27;47562;-61
2022/06/01 01:14:01;;;;;;;;;4.00;2.75;;;;;18.64;40.08;100987.41;2105019;28;47789;-60
2022/06/01 01:15:02;;;;;;;;;2.00;2.00;;;;;18.63;40.08;100988.34;2106128;27;47779;-61
2022/06/01 01:16:04;;;;;;;;;3.00;3.00;;;;;18.61;39.92;100983.03;2096271;28;47570;-59
2022/06/01 01:17:05;;;;;;;;;3.00;3.00;;;;;18.60;40.07;100975.94;2097264;28;47589;-62
2022/06/01 01:18:11;;;;;;;;;2.50;2.50;;;;;18.59;40.49;100978.69;2105877;27;47827;-60
2022/06/01 01:19:40;;;;;;;;;3.25;3.25;;;;;18.56;40.61;100978.88;2105178;28;48224;-62
2022/06/01 01:21:10;;;;;;;;;2.75;2.75;;;;;18.54;40.35;100973.53;2105282;28;47419;-62
2022/06/01 01:22:32;;;;;;;;;2.75;2.75;;;;;18.51;40.37;100979.06;2105199;27;47952;-61
2022/06/01 01:23:46;;;;;;;;;3.00;3.00;;;;;18.50;40.73;100977.34;2106023;27;48023;-60
2022/06/01 01:25:20;;;;;;;;;3.00;3.00;;;;;18.47;40.55;100975.69;2105872;27;48102;-62
2022/06/01 01:26:23;;;;;;;;;3.75;2.25;;;;;18.45;40.30;100974.91;2105826;27;47815;-60
2022/06/01 01:27:24;;;;;;;;;2.25;2.25;;;;;18.43;40.63;100974.09;2099728;27;47529;-60
2022/06/01 01:28:24;;;;;;;;;3.33;3.33;;;;;18.43;40.65;100970.53;2110224;27;46790;-61
2022/06/01 01:29:43;;;;;;;;;2.00;2.00;;;;;18.41;40.64;100972.41;2111171;27;47742;-61
2022/06/01 01:30:48;;;;;;;;;2.75;2.75;;;;;18.39;40.66;100972.50;2113636;27;48086;-61
2022/06/01 01:31:48;;;;;;;;;3.25;3.25;;;;;18.39;40.65;100977.00;2112331;27;48141;-61
2022/06/01 01:32:49;;;;;;;;;4.00;4.00;;;;;18.38;40.86;100975.25;2111407;27;47158;-62
2022/06/01 01:33:52;;;;;;;;;3.67;3.67;;;;;18.36;40.90;100972.66;2111188;27;48204;-61
2022/06/01 01:34:52;;;;;;;;;5.25;3.50;;;;;18.35;40.61;100975.41;2105084;27;47693;-63
2022/06/01 01:35:56;;;;;;;;;2.67;2.67;;;;;18.34;40.73;100974.56;2105471;27;47537;-62
2022/06/01 01:37:02;;;;;;;;;3.50;3.50;;;;;18.33;40.63;100975.50;2113787;27;47387;-62
2022/06/01 01:38:07;;;;;;;;;4.00;4.00;;;;;18.33;40.83;100975.50;2107971;27;47763;-59
2022/06/01 01:39:12;;;;;;;;;3.25;3.25;;;;;18.32;40.85;100970.22;2105820;27;47233;-62
2022/06/01 01:40:13;;;;;;;;;3.75;3.75;;;;;18.30;40.79;100981.03;2113224;27;48016;-62
2022/06/01 01:41:24;;;;;;;;;3.00;3.00;;;;;18.29;40.82;100973.03;2092828;28;45707;-61
2022/06/01 01:42:24;;;;;;;;;2.50;2.50;;;;;18.27;40.74;100977.59;2096235;27;48059;-62
2022/06/01 01:43:25;;;;;;;;;2.00;2.00;;;;;18.26;40.99;100978.56;2113617;27;48006;-59
2022/06/01 01:44:55;;;;;;;;;1.75;1.75;;;;;18.23;41.15;100971.53;2111367;27;47824;-60
2022/06/01 01:45:55;;;;;;;;;3.00;3.00;;;;;18.24;40.92;100981.31;2107690;27;47998;-59
2022/06/01 01:46:58;;;;;;;;;3.00;3.00;;;;;18.24;40.88;100984.88;2105824;27;47595;-63
2022/06/01 01:47:59;;;;;;;;;5.75;4.00;;;;;18.24;40.94;100982.19;2110216;27;47958;-62
2022/06/01 01:48:59;;;;;;;;;2.00;2.00;;;;;18.24;40.92;100982.19;2109226;27;47519;-62
2022/06/01 01:49:59;;;;;;;;;3.67;2.67;;;;;18.24;41.11;100984.00;2113469;27;47420;-62
2022/06/01 01:51:00;;;;;;;;;1.33;1.33;;;;;18.23;41.00;100991.19;2111717;27;48109;-62
2022/06/01 01:52:11;;;;;;;;;2.00;2.00;;;;;18.22;41.05;100986.78;2111599;27;47954;-60
2022/06/01 01:53:11;;;;;;;;;3.50;2.00;;;;;18.22;41.21;100986.78;2113884;27;48026;-62
2022/06/01 01:54:25;;;;;;;;;3.00;3.00;;;;;18.22;41.50;100981.41;2111403;27;47889;-61
2022/06/01 01:56:06;;;;;;;;;2.00;2.00;;;;;18.21;40.89;100984.16;2111601;27;47600;-61
2022/06/01 01:57:46;;;;;;;;;4.50;4.50;;;;;18.20;40.88;100985.13;2111172;27;47553;-63
2022/06/01 01:59:02;;;;;;;;;3.50;3.50;;;;;18.21;41.13;100984.16;2111565;27;47304;-61
2022/06/01 02:00:17;;;;;;;;;2.25;2.25;;;;;18.18;41.11;100982.50;2106702;27;47642;-59
2022/06/01 02:01:25;;;;;;;;;3.00;3.00;;;;;18.18;41.32;100982.50;2113509;27;47849;-63
2022/06/01 02:02:35;;;;;;;;;3.50;3.50;;;;;18.14;41.13;100983.59;2111657;27;46896;-63
2022/06/01 02:03:44;;;;;;;;;4.50;4.50;;;;;18.12;41.23;100974.72;2111363;27;47667;-62
2022/06/01 02:06:44;;;;;;;;;5.00;4.25;;;;;18.09;41.45;100972.19;2105781;27;47804;-59
2022/06/01 02:07:57;;;;;;;;;4.75;4.75;;;;;18.08;41.13;100975.84;2113438;27;46089;-62
2022/06/01 02:09:12;;;;;;;;;3.75;3.75;;;;;18.06;41.48;100972.38;2111942;27;47097;-61
2022/06/01 02:12:57;;;;;;;;;6.50;5.75;;;;;18.01;41.61;100962.75;2112661;27;48443;-60
2022/06/01 02:14:03;;;;;;;;;5.00;5.00;;;;;17.99;41.49;100970.03;2104956;27;47398;-63
2022/06/01 02:15:05;;;;;;;;;4.25;4.25;;;;;17.97;41.38;100963.88;2105203;27;47714;-62
2022/06/01 02:16:06;;;;;;;;;6.25;6.25;;;;;17.95;41.70;100961.25;2086567;28;47806;-61
2022/06/01 02:17:15;;;;;;;;;5.00;5.00;;;;;17.93;41.71;100965.84;2087600;28;47823;-61
2022/06/01 02:18:28;;;;;;;;;4.50;4.50;;;;;17.91;41.61;100957.88;2105445;27;48361;-62
2022/06/01 02:19:42;;;;;;;;;8.00;6.25;;;;;17.89;41.80;100959.72;2104919;27;48144;-60
2022/06/01 02:20:48;;;;;;;;;5.25;5.25;;;;;17.88;41.98;100963.34;2078733;28;47547;-60
2022/06/01 02:21:48;;;;;;;;;3.00;3.00;;;;;17.87;41.91;100958.94;2081292;28;48341;-59
2022/06/01 02:22:49;;;;;;;;;4.00;4.00;;;;;17.88;41.88;100962.50;2105169;27;47213;-60
2022/06/01 02:23:51;;;;;;;;;6.75;5.75;;;;;17.87;42.04;100961.63;2104959;28;47821;-61
2022/06/01 02:24:52;;;;;;;;;4.75;4.25;;;;;17.87;42.02;100958.06;2105116;27;48411;-62
2022/06/01 02:25:53;;;;;;;;;5.33;5.33;;;;;17.87;41.84;100956.25;2104822;28;47442;-62
2022/06/01 02:26:56;;;;;;;;;4.00;4.00;;;;;17.88;41.84;100957.13;2104837;27;47797;-61
2022/06/01 02:27:59;;;;;;;;;3.00;1.75;;;;;17.90;41.94;100957.91;2105947;27;46385;-60
2022/06/01 02:29:16;;;;;;;;;3.00;3.00;;;;;17.97;42.12;100961.19;2113589;27;48037;-60
2022/06/01 02:30:23;;;;;;;;;2.75;2.75;;;;;18.01;41.88;100952.03;2112659;27;47417;-59
2022/06/01 02:31:25;;;;;;;;;3.75;2.75;;;;;18.05;41.77;100957.19;2110680;27;46691;-61
2022/06/01 02:32:26;;;;;;;;;3.25;3.25;;;;;18.09;41.76;100952.53;2113149;27;48033;-62
2022/06/01 02:33:33;;;;;;;;;3.50;3.50;;;;;18.13;41.80;100954.97;2111414;27;48023;-62
2022/06/01 02:34:37;;;;;;;;;3.00;3.00;;;;;18.17;41.68;100950.34;2107068;27;47697;-61
2022/06/01 02:35:45;;;;;;;;;3.50;3.50;;;;;18.19;41.64;100957.38;2112741;27;47948;-61
2022/06/01 02:36:45;;;;;;;;;4.75;3.50;;;;;18.22;41.67;100950.97;2112496;27;48099;-60
2022/06/01 02:37:50;;;;;;;;;4.67;3.67;;;;;18.25;41.45;100953.50;2109891;27;47533;-62
2022/06/01 02:38:54;;;;;;;;;2.00;2.00;;;;;18.28;41.48;100947.97;2105038;27;47981;-61
2022/06/01 02:39:56;;;;;;;;;3.00;3.00;;;;;18.31;41.77;100955.03;2111538;27;47627;-57
2022/06/01 02:40:56;;;;;;;;;2.00;2.00;;;;;18.34;41.16;100952.19;2110647;27;48019;-60
2022/06/01 02:42:26;;;;;;;;;5.33;4.00;;;;;18.37;41.48;100946.66;2112971;27;47856;-62
2022/06/01 02:43:27;;;;;;;;;5.50;3.25;;;;;18.39;41.41;100950.13;2113242;27;47122;-60
2022/06/01 02:44:27;;;;;;;;;2.33;2.33;;;;;18.41;41.38;100946.41;2100994;28;47474;-59
2022/06/01 02:45:28;;;;;;;;;3.00;3.00;;;;;18.44;41.21;100951.66;2101797;28;47422;-61
2022/06/01 02:46:29;;;;;;;;;4.00;4.00;;;;;18.46;41.31;100947.06;2112568;27;47454;-61
2022/06/01 02:47:32;;;;;;;;;3.75;3.75;;;;;18.49;41.26;100948.72;2110982;27;47425;-60
2022/06/01 02:48:32;;;;;;;;;4.50;4.50;;;;;18.50;41.44;100951.31;2106466;27;47929;-57
2022/06/01 02:49:33;;;;;;;;;2.00;2.00;;;;;18.53;41.28;100943.09;2111325;27;47433;-60
2022/06/01 02:50:35;;;;;;;;;2.33;2.33;;;;;18.53;41.15;100950.28;2110944;27;46598;-62
2022/06/01 02:51:36;;;;;;;;;3.50;3.50;;;;;18.53;41.12;100944.91;2112711;27;47709;-61
2022/06/01 02:52:36;;;;;;;;;3.67;3.67;;;;;18.52;41.11;100946.75;2110756;27;47423;-62
2022/06/01 02:53:37;;;;;;;;;2.33;2.33;;;;;18.49;41.11;100949.59;2110922;27;47774;-61
2022/06/01 02:54:38;;;;;;;;;1.50;1.50;;;;;18.46;41.13;100935.44;2113296;27;47632;-61
2022/06/01 02:55:39;;;;;;;;;2.00;2.00;;;;;18.43;41.24;100946.38;2111052;27;47426;-60
2022/06/01 02:56:39;;;;;;;;;4.33;3.33;;;;;18.40;41.13;100946.50;2112709;27;47907;-59
2022/06/01 02:57:41;;;;;;;;;4.67;4.33;;;;;18.36;41.29;100944.91;2111514;27;47883;-59
2022/06/01 02:58:41;;;;;;;;;4.25;3.50;;;;;18.34;41.09;100946.81;2111010;27;48135;-58
2022/06/01 02:59:42;;;;;;;;;3.00;3.00;;;;;18.31;41.35;100946.97;2109387;27;47884;-61
2022/06/01 03:00:43;;;;;;;;;4.67;4.67;;;;;18.27;41.35;100948.06;2110217;27;47216;-62
2022/06/01 03:01:43;;;;;;;;;4.33;4.00;;;;;18.24;41.53;100949.09;2111063;27;47631;-62
2022/06/01 03:02:46;;;;;;;;;3.67;3.67;;;;;18.21;41.43;100943.88;2113201;27;47620;-61
2022/06/01 03:03:47;;;;;;;;;4.75;3.75;;;;;18.18;41.63;100942.22;2111113;27;48272;-61
2022/06/01 03:04:47;;;;;;;;;4.00;4.00;;;;;18.17;41.78;100940.47;2111684;27;47892;-61
2022/06/01 03:05:47;;;;;;;;;5.00;5.00;;;;;18.14;41.59;100937.06;2112315;27;47227;-61
2022/06/01 03:06:48;;;;;;;;;4.67;3.67;;;;;18.11;41.61;100943.44;2107821;27;48012;-60
2022/06/01 03:07:49;;;;;;;;;4.00;2.67;;;;;18.09;41.58;100931.03;2112605;27;47604;-62
2022/06/01 03:08:50;;;;;;;;;4.50;4.50;;;;;18.06;41.76;100941.94;2111438;27;47962;-62
2022/06/01 03:09:50;;;;;;;;;6.00;6.00;;;;;18.04;41.71;100938.44;2112087;27;47589;-61
2022/06/01 03:10:51;;;;;;;;;5.00;5.00;;;;;18.00;41.74;100936.88;2112170;27;47622;-61
2022/06/01 03:11:52;;;;;;;;;6.00;4.75;;;;;17.97;42.04;100940.56;2108760;27;47897;-61
2022/06/01 03:12:53;;;;;;;;;4.33;4.33;;;;;17.94;42.15;100944.28;2112453;27;47627;-61
2022/06/01 03:13:53;;;;;;;;;0.00;0.00;;;;;17.93;42.29;100934.50;2105491;27;48026;-59
2022/06/01 03:14:54;;;;;;;;;3.33;3.33;;;;;17.92;42.11;100940.81;2105195;27;47978;-61
2022/06/01 03:15:54;;;;;;;;;3.33;3.33;;;;;17.91;42.12;100943.53;2094704;28;47566;-58
2022/06/01 03:16:57;;;;;;;;;6.67;6.67;;;;;17.88;42.43;100939.19;2095697;28;47560;-61
2022/06/01 03:17:58;;;;;;;;;8.00;5.50;;;;;17.86;42.41;100942.91;2105165;27;47661;-60
2022/06/01 03:18:58;;;;;;;;;5.00;5.00;;;;;17.84;42.33;100947.47;2104627;28;47525;-62
2022/06/01 03:19:59;;;;;;;;;5.00;5.00;;;;;17.81;42.42;100943.13;2105154;27;47974;-59
2022/06/01 03:20:59;;;;;;;;;6.25;6.25;;;;;17.80;42.40;100940.53;2105152;28;45296;-62
2022/06/01 03:22:01;;;;;;;;;5.67;5.00;;;;;17.78;42.40;100947.75;2103566;27;47829;-60
2022/06/01 03:23:01;;;;;;;;;6.40;5.60;;;;;17.77;42.55;100952.25;2105479;27;48255;-62
2022/06/01 03:24:02;;;;;;;;;5.00;5.00;;;;;17.75;42.59;100951.47;2104359;28;47297;-62
2022/06/01 03:25:09;;;;;;;;;6.67;6.00;;;;;17.74;42.57;100949.72;2087215;28;47599;-61
2022/06/01 03:26:10;;;;;;;;;4.25;4.25;;;;;17.72;42.70;100954.31;2088822;28;47950;-60
2022/06/01 03:27:10;;;;;;;;;6.00;6.00;;;;;17.69;42.96;100954.47;2104299;28;47338;-62
2022/06/01 03:28:11;;;;;;;;;5.00;5.00;;;;;17.67;42.72;100950.06;2102985;27;46426;-63
2022/06/01 03:29:11;;;;;;;;;5.00;5.00;;;;;17.64;42.81;100951.06;2098491;27;47203;-60
2022/06/01 03:30:15;;;;;;;;;9.00;9.00;;;;;17.63;42.97;100952.88;2111170;27;48172;-61
2022/06/01 03:31:16;;;;;;;;;6.50;6.00;;;;;17.63;42.94;100954.69;2101442;28;47654;-62
2022/06/01 03:32:17;;;;;;;;;6.33;5.33;;;;;17.61;43.20;100952.09;2103607;28;48125;-62
2022/06/01 03:33:17;;;;;;;;;5.67;5.67;;;;;17.64;43.12;100953.75;2110454;27;47688;-62
2022/06/01 03:34:18;;;;;;;;;9.67;7.33;;;;;17.65;42.98;100956.34;2107231;27;47956;-60
2022/06/01 03:35:23;;;;;;;;;7.50;7.50;;;;;17.65;43.09;100953.69;2112804;27;47756;-61
2022/06/01 03:36:23;;;;;;;;;6.00;6.00;;;;;17.63;42.92;100954.69;2110816;27;48077;-59
2022/06/01 03:37:24;;;;;;;;;9.33;8.00;;;;;17.61;43.01;100962.81;2111025;27;47645;-62
2022/06/01 03:38:24;;;;;;;;;9.00;7.00;;;;;17.60;42.92;100962.91;2096947;28;47699;-61
2022/06/01 03:39:25;;;;;;;;;6.33;6.33;;;;;17.61;43.15;100961.97;2098177;28;47326;-62
2022/06/01 03:40:28;;;;;;;;;7.67;6.33;;;;;17.59;42.90;100955.78;2112561;27;47546;-61
2022/06/01 03:41:29;;;;;;;;;7.80;7.80;;;;;17.58;43.14;100959.44;2111387;27;47912;-62
2022/06/01 03:42:30;;;;;;;;;8.25;7.75;;;;;17.57;43.17;100957.69;2110529;27;47628;-61
2022/06/01 03:45:55;;;;;;;;;7.25;7.25;;;;;17.55;43.17;100957.75;2112869;27;47871;-61
2022/06/01 03:46:10;;;;;;;;;7.20;7.20;;;;;17.52;43.33;100965.06;2110946;27;48335;-58
2022/06/01 03:47:11;;;;;;;;;8.33;8.33;;;;;17.52;43.34;100965.94;2110764;27;47670;-59
2022/06/01 03:48:12;;;;;;;;;8.00;8.00;;;;;17.51;43.33;100957.94;2109344;27;47286;-59
2022/06/01 03:49:13;;;;;;;;;7.00;7.00;;;;;17.50;43.43;100956.22;2108400;27;48292;-61
2022/06/01 03:50:14;;;;;;;;;8.00;7.67;;;;;17.49;43.42;100959.84;2111622;27;48000;-59
2022/06/01 03:51:15;;;;;;;;;7.00;7.00;;;;;17.48;43.50;100956.28;2111852;27;47546;-62
2022/06/01 03:52:15;;;;;;;;;5.25;5.25;;;;;17.45;43.54;100961.81;2108022;27;48178;-62
2022/06/01 03:53:16;;;;;;;;;8.33;7.00;;;;;17.44;43.37;100953.84;2104414;28;47804;-63
2022/06/01 03:54:16;;;;;;;;;5.00;5.00;;;;;17.42;43.67;100961.09;2100661;28;48323;-62
2022/06/01 03:55:17;;;;;;;;;6.00;5.00;;;;;17.40;43.69;100963.81;2100930;28;47951;-62
2022/06/01 03:56:18;;;;;;;;;9.67;8.00;;;;;17.41;43.76;100964.72;2113023;27;47895;-61
2022/06/01 03:57:19;;;;;;;;;7.25;6.25;;;;;17.40;43.50;100963.81;2110299;27;48622;-62
2022/06/01 03:58:22;;;;;;;;;6.33;6.33;;;;;17.39;43.89;100970.13;2111482;27;47930;-62
2022/06/01 03:59:23;;;;;;;;;6.20;6.20;;;;;17.38;43.82;100968.38;2111533;27;48008;-62
2022/06/01 04:00:25;;;;;;;;;7.00;5.67;;;;;17.36;43.72;100970.28;2107879;27;47698;-61
2022/06/01 04:01:26;;;;;;;;;6.00;6.00;;;;;17.34;43.91;100967.66;2112249;27;47987;-61
2022/06/01 04:02:26;;;;;;;;;6.33;5.67;;;;;17.35;43.85;100971.22;2111576;27;47777;-61
2022/06/01 04:03:27;;;;;;;;;5.00;5.00;;;;;17.34;44.08;100967.66;2110583;27;48074;-61
2022/06/01 04:04:28;;;;;;;;;6.00;6.00;;;;;17.34;43.87;100973.03;2103969;28;47422;-62
2022/06/01 04:05:28;;;;;;;;;8.25;6.00;;;;;17.35;43.76;100973.91;2101857;27;45496;-58
2022/06/01 04:06:30;;;;;;;;;7.00;7.00;;;;;17.34;43.98;100973.03;2107981;27;48004;-62
2022/06/01 04:07:31;;;;;;;;;5.25;5.25;;;;;17.35;44.39;100977.44;2112760;27;48028;-62
2022/06/01 04:08:32;;;;;;;;;6.60;6.00;;;;;17.33;44.31;100976.66;2110927;27;47455;-61
2022/06/01 04:09:32;;;;;;;;;6.67;5.67;;;;;17.32;44.38;100971.34;2112106;27;46926;-63
2022/06/01 04:10:35;;;;;;;;;8.67;6.33;;;;;17.31;43.90;100975.84;2112620;27;47597;-60
2022/06/01 04:11:36;;;;;;;;;5.75;5.75;;;;;17.30;44.18;100975.94;2107662;27;47496;-62
2022/06/01 04:12:37;;;;;;;;;5.00;5.00;;;;;17.31;44.17;100981.22;2112290;27;47622;-61
2022/06/01 04:13:38;;;;;;;;;6.00;6.00;;;;;17.29;44.18;100975.06;2106429;27;47782;-63
2022/06/01 04:14:38;;;;;;;;;7.67;7.33;;;;;17.30;44.32;100982.16;2105294;27;48116;-61
2022/06/01 04:15:39;;;;;;;;;5.00;5.00;;;;;17.30;44.28;100976.81;2095709;28;47362;-59
2022/06/01 04:16:39;;;;;;;;;6.75;5.50;;;;;17.31;44.47;100980.34;2100887;27;47668;-62
2022/06/01 04:17:40;;;;;;;;;4.33;4.33;;;;;17.31;44.67;100969.63;2103907;28;48003;-61
2022/06/01 04:18:40;;;;;;;;;6.00;6.00;;;;;17.33;44.46;100970.41;2104986;27;47422;-59
2022/06/01 04:19:41;;;;;;;;;6.33;6.33;;;;;17.35;44.08;100972.09;2104763;27;45754;-60
2022/06/01 04:20:43;;;;;;;;;7.00;6.00;;;;;17.37;44.16;100974.69;2104436;28;47188;-60
2022/06/01 04:21:49;;;;;;;;;4.75;4.75;;;;;17.38;44.28;100976.44;2104881;27;46814;-61
2022/06/01 04:22:54;;;;;;;;;5.50;5.50;;;;;17.39;44.07;100979.97;2104927;27;47545;-61
2022/06/01 04:24:00;;;;;;;;;6.75;5.25;;;;;17.39;44.19;100982.66;2104091;28;47385;-63
2022/06/01 04:25:01;;;;;;;;;6.75;6.00;;;;;17.39;44.42;100977.31;2105109;27;47752;-59
2022/06/01 04:26:01;;;;;;;;;6.00;6.00;;;;;17.41;44.26;100980.81;2104728;27;47386;-61
2022/06/01 04:27:03;;;;;;;;;4.00;4.00;;;;;17.44;44.62;100988.72;2104133;28;47757;-59
2022/06/01 04:28:04;;;;;;;;;5.75;4.50;;;;;17.45;44.01;100979.72;2080027;28;47382;-61
2022/06/01 04:29:04;;;;;;;;;7.00;6.33;;;;;17.46;44.40;100987.69;2086245;28;47187;-61
2022/06/01 04:30:10;;;;;;;;;6.33;6.33;;;;;17.49;44.38;100986.69;2110803;27;47586;-61
2022/06/01 04:31:11;;;;;;;;;5.00;5.00;;;;;17.51;44.20;100984.78;2110649;27;47684;-61
2022/06/01 04:32:16;;;;;;;;;7.75;5.50;;;;;17.55;44.27;100991.78;2112686;27;47978;-61
2022/06/01 04:33:16;;;;;;;;;7.75;6.50;;;;;17.58;44.52;100986.25;2110672;27;47913;-62
2022/06/01 04:34:16;;;;;;;;;5.00;5.00;;;;;17.62;44.46;100991.41;2106652;27;47898;-60
2022/06/01 04:35:18;;;;;;;;;6.00;6.00;;;;;17.67;44.09;100987.66;2112662;27;47594;-62
2022/06/01 04:36:19;;;;;;;;;6.25;6.25;;;;;17.71;44.43;100992.81;2110617;27;47506;-61
2022/06/01 04:37:19;;;;;;;;;7.00;7.00;;;;;17.74;44.05;100995.38;2102586;28;47506;-63
2022/06/01 04:38:20;;;;;;;;;5.33;4.33;;;;;17.78;44.00;100990.72;2096866;28;47897;-61
2022/06/01 04:39:22;;;;;;;;;6.00;6.00;;;;;17.81;43.87;100991.47;2088065;28;47832;-60
2022/06/01 04:40:22;;;;;;;;;7.00;7.00;;;;;17.85;43.74;100992.19;2086402;28;47798;-60
2022/06/01 04:41:22;;;;;;;;;5.25;5.25;;;;;17.88;43.88;100998.25;2101477;27;47700;-60
2022/06/01 04:42:23;;;;;;;;;7.75;7.75;;;;;17.91;43.81;100997.25;2112182;27;48012;-61
2022/06/01 04:43:23;;;;;;;;;7.50;7.25;;;;;17.94;43.93;100998.00;2112563;27;47867;-60
2022/06/01 04:44:25;;;;;;;;;6.50;6.50;;;;;17.96;43.77;100997.91;2110560;27;47293;-61
2022/06/01 04:45:25;;;;;;;;;8.20;7.60;;;;;17.99;43.86;101007.63;2093511;28;47611;-60
2022/06/01 04:46:26;;;;;;;;;9.00;7.75;;;;;18.01;43.80;101003.06;2094104;28;47818;-57
2022/06/01 04:47:26;;;;;;;;;6.75;6.75;;;;;18.02;44.10;101004.78;2110444;27;47567;-61
2022/06/01 04:48:27;;;;;;;;;6.25;6.25;;;;;18.03;43.92;101002.03;2106815;27;47850;-59
2022/06/01 04:49:27;;;;;;;;;7.00;7.00;;;;;18.03;43.76;101006.53;2110045;27;47623;-59
2022/06/01 04:50:28;;;;;;;;;7.00;7.00;;;;;18.03;43.80;101004.72;2110731;27;47794;-60
2022/06/01 04:51:28;;;;;;;;;8.50;8.50;;;;;18.03;43.87;101014.59;2112677;27;48080;-61
2022/06/01 04:52:29;;;;;;;;;6.00;6.00;;;;;18.02;43.87;101004.78;2110599;27;47858;-62
2022/06/01 04:53:29;;;;;;;;;8.00;7.00;;;;;18.01;43.90;101005.72;2111242;27;47384;-57
2022/06/01 04:54:30;;;;;;;;;5.00;5.00;;;;;18.01;44.03;101009.28;2112161;27;47210;-61
2022/06/01 04:55:30;;;;;;;;;7.00;6.25;;;;;18.02;43.79;101010.16;2110638;27;47535;-58
2022/06/01 04:56:30;;;;;;;;;7.00;7.00;;;;;18.03;44.18;101007.41;2112866;27;48027;-61
2022/06/01 04:57:31;;;;;;;;;7.75;7.25;;;;;18.02;43.84;101005.66;2110232;27;47477;-60
2022/06/01 04:58:31;;;;;;;;;9.00;9.00;;;;;18.03;43.95;101011.91;2110785;27;47657;-60
2022/06/01 04:59:33;;;;;;;;;8.00;8.00;;;;;18.00;43.88;101012.06;2110117;27;47867;-61
2022/06/01 05:00:33;;;;;;;;;7.60;6.60;;;;;18.02;43.88;101013.72;2102723;27;48055;-61
2022/06/01 05:01:34;;;;;;;;;6.25;6.25;;;;;18.03;43.98;101018.13;2102229;27;47849;-61